Avon, Massachusetts
Current Conditions -  °F | °C
As of 7:53 PM on Sunday 21 Dec 2014 (Local Time) from KOWD Reporting Station
Overcast Overcast  
Wind Chill: 30°   Ceiling: 1700
Heat Index: 34°   Visibility: 10mi
Dew Point: 29°   Wind: 5mph
Humidity: 82%   Direction: 330°NNW
Pressure: 30.34"   Gusts: NA
Location:  42.13°N, 71.04°W
Report Text: KOWD 220053Z AUTO 33004KT 10SM BKN017 BKN050 OVC060 01/M02 A3034 RMK AO2 SLP275 T00111017
Loading
Personal Weather Stations






























Interactive Weather Map New forecast layout! Learn more

10-Day Weather Forecast

Advertisements
Track Severe Weather on mobile